createdAt,value
2023-02-27T00:00:22.988Z,0.65
2023-02-27T00:02:51.924Z,0.59
2023-02-27T00:05:22.459Z,0.62
2023-02-27T00:07:50.278Z,0.68
2023-02-27T00:10:17.763Z,0.66
2023-02-27T00:12:45.038Z,0.70
2023-02-27T00:15:18.550Z,0.69
2023-02-27T00:17:46.261Z,0.70
2023-02-27T00:20:15.852Z,0.66
2023-02-27T00:22:44.205Z,0.69
2023-02-27T00:25:12.745Z,0.72
2023-02-27T00:27:40.397Z,0.72
2023-02-27T00:30:10.243Z,0.70
2023-02-27T00:32:37.691Z,0.73
2023-02-27T00:35:06.336Z,0.72
2023-02-27T00:37:34.544Z,0.72
2023-02-27T00:40:02.275Z,0.72
2023-02-27T00:42:30.987Z,0.73
2023-02-27T00:44:58.803Z,0.72
2023-02-27T00:47:26.067Z,0.70
2023-02-27T00:49:53.742Z,0.76
2023-02-27T00:52:20.941Z,0.73
2023-02-27T00:54:48.075Z,0.75
2023-02-27T00:57:15.281Z,0.75
2023-02-27T00:59:42.883Z,0.72
2023-02-27T01:02:14.158Z,0.72
2023-02-27T01:04:41.510Z,0.77
2023-02-27T01:07:09.706Z,0.76
2023-02-27T01:09:36.960Z,0.75
2023-02-27T01:12:04.516Z,0.79
2023-02-27T01:14:31.784Z,0.79
2023-02-27T01:16:58.995Z,0.79
2023-02-27T01:19:26.176Z,0.77
2023-02-27T01:21:53.593Z,0.76
2023-02-27T01:24:21.988Z,0.76
2023-02-27T01:26:49.504Z,0.70
2023-02-27T01:29:16.706Z,0.69
2023-02-27T01:31:44.810Z,0.70
2023-02-27T01:34:12.255Z,0.73
2023-02-27T01:36:41.015Z,0.73
2023-02-27T01:39:08.592Z,0.68
2023-02-27T01:41:36.164Z,0.65
2023-02-27T01:44:08.420Z,0.66
2023-02-27T01:46:38.496Z,0.69
2023-02-27T01:49:17.501Z,0.70
2023-02-27T01:52:16.363Z,0.69
2023-02-27T01:54:43.663Z,0.68
2023-02-27T01:57:10.866Z,0.70
2023-02-27T01:59:41.780Z,0.70
2023-02-27T02:02:21.856Z,0.72
2023-02-27T02:04:51.065Z,0.70
2023-02-27T02:07:21.945Z,0.70
2023-02-27T02:09:52.637Z,0.70
2023-02-27T02:12:24.314Z,0.72
2023-02-27T02:14:51.919Z,0.76
2023-02-27T02:17:35.877Z,0.77
2023-02-27T02:20:31.192Z,0.76
2023-02-27T02:23:22.991Z,0.75
2023-02-27T02:26:04.137Z,0.73
2023-02-27T02:29:13.207Z,0.76
2023-02-27T02:31:57.618Z,0.79
2023-02-27T02:34:59.023Z,0.77
2023-02-27T02:37:26.386Z,0.80
2023-02-27T02:40:15.223Z,0.82
2023-02-27T02:43:03.477Z,0.82
2023-02-27T02:45:47.189Z,0.77
2023-02-27T02:48:21.318Z,0.77
2023-02-27T02:50:56.456Z,0.76
2023-02-27T02:53:48.205Z,0.79
2023-02-27T02:56:22.170Z,0.80
2023-02-27T02:59:17.300Z,0.83
2023-02-27T03:02:05.278Z,0.83
2023-02-27T03:04:52.182Z,0.82
2023-02-27T03:07:26.066Z,0.77
2023-02-27T03:10:09.049Z,0.75
2023-02-27T03:12:40.865Z,0.69
2023-02-27T03:15:17.004Z,0.69
2023-02-27T03:18:03.048Z,0.72
2023-02-27T03:20:35.414Z,0.66
2023-02-27T03:23:08.154Z,0.72
2023-02-27T03:25:36.659Z,0.72
2023-02-27T03:28:09.324Z,0.70
2023-02-27T03:30:47.081Z,0.69
2023-02-27T03:33:41.059Z,0.68
2023-02-27T03:36:14.488Z,0.69
2023-02-27T03:39:00.270Z,0.69
2023-02-27T03:41:32.909Z,0.68
2023-02-27T03:44:56.293Z,0.72
2023-02-27T03:47:24.234Z,0.73
2023-02-27T03:49:52.166Z,0.73
2023-02-27T03:52:21.199Z,0.69
2023-02-27T03:55:02.449Z,0.72
2023-02-27T03:57:31.115Z,0.73
2023-02-27T03:59:59.502Z,0.72
2023-02-27T04:02:28.221Z,0.68
2023-02-27T04:04:56.073Z,0.62
2023-02-27T04:07:54.498Z,0.62
2023-02-27T04:10:41.134Z,0.65
2023-02-27T04:13:31.678Z,0.68
2023-02-27T04:16:20.535Z,0.65
2023-02-27T04:19:06.778Z,0.66
2023-02-27T04:22:12.395Z,0.70
2023-02-27T04:24:54.691Z,0.68
2023-02-27T04:27:40.564Z,0.66
2023-02-27T04:30:25.906Z,0.65
2023-02-27T04:33:21.017Z,0.63
2023-02-27T04:35:51.979Z,0.56
2023-02-27T04:38:26.330Z,0.61
2023-02-27T04:41:07.688Z,0.66
2023-02-27T04:43:37.348Z,0.66
2023-02-27T04:46:08.619Z,0.62
2023-02-27T04:48:43.340Z,0.63
2023-02-27T04:51:14.329Z,0.63
2023-02-27T04:53:51.783Z,0.63
2023-02-27T04:56:26.486Z,0.68
2023-02-27T04:58:59.671Z,0.66
2023-02-27T05:01:52.889Z,0.68
2023-02-27T05:04:22.780Z,0.69
2023-02-27T05:06:54.262Z,0.63
2023-02-27T05:09:30.664Z,0.61
2023-02-27T05:12:42.263Z,0.59
2023-02-27T05:15:24.882Z,0.63
2023-02-27T05:18:04.342Z,0.68
2023-02-27T05:20:55.684Z,0.66
2023-02-27T05:23:56.204Z,0.70
2023-02-27T05:26:40.104Z,0.70
2023-02-27T05:29:19.506Z,0.70
2023-02-27T05:32:17.723Z,0.72
2023-02-27T05:34:52.722Z,0.75
2023-02-27T05:37:34.522Z,0.75
2023-02-27T05:40:08.401Z,0.77
2023-02-27T05:42:43.830Z,0.79
2023-02-27T05:45:19.009Z,0.79
2023-02-27T05:47:53.927Z,0.83
2023-02-27T05:50:26.498Z,0.82
2023-02-27T05:52:57.576Z,0.84
2023-02-27T05:55:31.656Z,0.87
2023-02-27T05:58:12.897Z,0.91
2023-02-27T06:00:51.693Z,1.01
2023-02-27T06:03:19.056Z,1.03
2023-02-27T06:05:47.021Z,1.08
2023-02-27T06:08:14.328Z,1.13
2023-02-27T06:10:41.489Z,1.16
2023-02-27T06:13:08.683Z,1.17
2023-02-27T06:15:36.004Z,1.18
2023-02-27T06:18:03.368Z,1.18
2023-02-27T06:20:30.563Z,1.23
2023-02-27T06:22:57.808Z,1.26
2023-02-27T06:25:25.134Z,1.31
2023-02-27T06:27:52.585Z,1.32
2023-02-27T06:30:20.068Z,1.37
2023-02-27T06:32:47.382Z,1.41
2023-02-27T06:35:14.833Z,1.45
2023-02-27T06:37:42.051Z,1.51
2023-02-27T06:40:11.657Z,1.55
2023-02-27T06:42:40.121Z,1.59
2023-02-27T06:45:07.999Z,1.60
2023-02-27T06:47:35.453Z,1.70
2023-02-27T06:50:03.628Z,1.73
2023-02-27T06:52:31.453Z,1.82
2023-02-27T06:54:59.044Z,1.80
2023-02-27T06:57:26.244Z,1.75
2023-02-27T06:59:53.486Z,1.92
2023-02-27T07:02:20.765Z,1.97
2023-02-27T07:04:47.995Z,2.03
2023-02-27T07:07:33.798Z,2.03
2023-02-27T07:10:03.018Z,2.06
2023-02-27T07:12:30.200Z,2.18
2023-02-27T07:14:57.357Z,2.27
2023-02-27T07:17:24.525Z,2.31
2023-02-27T07:19:51.670Z,2.35
2023-02-27T07:22:18.830Z,2.44
2023-02-27T07:24:46.028Z,2.58
2023-02-27T07:27:13.210Z,2.78
2023-02-27T07:29:40.390Z,2.86
2023-02-27T07:32:07.628Z,2.96
2023-02-27T07:34:34.951Z,2.91
2023-02-27T07:37:02.140Z,2.83
2023-02-27T07:39:29.383Z,2.88
2023-02-27T07:41:56.591Z,2.78
2023-02-27T07:44:23.821Z,2.95
2023-02-27T07:46:51.022Z,3.02
2023-02-27T07:49:18.279Z,3.07
2023-02-27T07:51:45.586Z,3.10
2023-02-27T07:54:12.770Z,3.10
2023-02-27T07:56:39.959Z,3.27
2023-02-27T07:59:07.264Z,3.35
2023-02-27T08:01:34.393Z,3.48
2023-02-27T08:04:01.577Z,3.58
2023-02-27T08:06:29.351Z,3.78
2023-02-27T08:08:56.788Z,3.90
2023-02-27T08:11:24.376Z,4.09
2023-02-27T08:14:00.978Z,4.27
2023-02-27T08:16:31.578Z,4.54
2023-02-27T08:19:00.242Z,4.72
2023-02-27T08:21:28.085Z,4.84
2023-02-27T08:23:55.565Z,4.88
2023-02-27T08:26:23.194Z,5.19
2023-02-27T08:28:51.140Z,5.15
2023-02-27T08:31:18.400Z,5.15
2023-02-27T08:33:45.580Z,5.20
2023-02-27T08:36:13.356Z,5.00
2023-02-27T08:38:40.672Z,4.75
2023-02-27T08:41:08.093Z,4.60
2023-02-27T08:43:35.263Z,4.60
2023-02-27T08:46:02.610Z,4.57
2023-02-27T08:48:29.863Z,4.61
2023-02-27T08:50:57.999Z,4.64
2023-02-27T08:53:25.391Z,4.79
2023-02-27T08:55:53.309Z,4.91
2023-02-27T08:58:20.921Z,5.02
2023-02-27T09:00:48.285Z,5.09
2023-02-27T09:03:15.843Z,5.25
2023-02-27T09:05:43.537Z,5.27
2023-02-27T09:08:10.794Z,5.29
2023-02-27T09:10:37.984Z,5.51
2023-02-27T09:13:05.178Z,5.42
2023-02-27T09:15:34.446Z,5.46
2023-02-27T09:18:03.222Z,5.47
2023-02-27T09:20:31.766Z,5.40
2023-02-27T09:22:59.926Z,5.46
2023-02-27T09:25:27.883Z,5.67
2023-02-27T09:27:55.525Z,5.73
2023-02-27T09:30:23.371Z,5.43
2023-02-27T09:32:51.604Z,5.54
2023-02-27T09:35:20.539Z,5.12
2023-02-27T09:37:49.654Z,5.13
2023-02-27T09:40:17.184Z,5.26
2023-02-27T09:42:46.455Z,5.34
2023-02-27T09:45:23.399Z,5.44
2023-02-27T09:47:56.061Z,5.36
2023-02-27T09:50:49.097Z,5.32
2023-02-27T09:53:31.455Z,5.29
2023-02-27T09:56:07.279Z,5.39
2023-02-27T09:59:08.199Z,5.60
2023-02-27T10:01:51.000Z,6.36
2023-02-27T10:04:23.959Z,6.85
2023-02-27T10:06:52.943Z,7.16
2023-02-27T10:09:44.794Z,7.49
2023-02-27T10:12:32.672Z,7.32
2023-02-27T10:15:10.692Z,6.92
2023-02-27T10:18:07.091Z,6.73
2023-02-27T10:20:47.664Z,6.60
2023-02-27T10:23:23.026Z,6.50
2023-02-27T10:25:51.950Z,6.56
2023-02-27T10:28:21.625Z,6.49
2023-02-27T10:30:54.893Z,6.01
2023-02-27T10:33:35.624Z,5.55
2023-02-27T10:36:12.455Z,5.23
2023-02-27T10:38:49.541Z,4.84
2023-02-27T10:41:20.334Z,4.65
2023-02-27T10:43:49.619Z,4.60
2023-02-27T10:46:25.281Z,4.51
2023-02-27T10:48:53.209Z,4.67
2023-02-27T10:51:28.014Z,4.44
2023-02-27T10:54:24.346Z,4.37
2023-02-27T10:56:58.101Z,4.48
2023-02-27T10:59:25.296Z,4.41
2023-02-27T11:01:54.689Z,4.62
2023-02-27T11:04:46.122Z,4.46
2023-02-27T11:07:16.765Z,4.34
2023-02-27T11:09:59.422Z,4.21
2023-02-27T11:12:28.921Z,4.20
2023-02-27T11:14:58.551Z,4.17
2023-02-27T11:17:34.123Z,4.13
2023-02-27T11:20:06.125Z,3.96
2023-02-27T11:22:33.613Z,3.89
2023-02-27T11:25:21.430Z,4.00
2023-02-27T11:27:50.197Z,3.83
2023-02-27T11:30:28.586Z,3.92
2023-02-27T11:32:59.025Z,3.93
2023-02-27T11:35:36.447Z,3.71
2023-02-27T11:38:07.420Z,3.78
2023-02-27T11:40:40.952Z,3.68
2023-02-27T11:43:25.172Z,3.44
2023-02-27T11:46:13.910Z,3.35
2023-02-27T11:48:51.249Z,3.27
2023-02-27T11:51:32.825Z,3.30
2023-02-27T11:54:27.082Z,3.26
2023-02-27T11:57:00.156Z,3.55
2023-02-27T11:59:41.836Z,3.61
2023-02-27T12:02:41.265Z,3.48
2023-02-27T12:05:22.896Z,3.48
2023-02-27T12:07:57.409Z,3.27
2023-02-27T12:11:13.633Z,3.24
2023-02-27T12:13:47.035Z,3.41
2023-02-27T12:16:22.619Z,3.47
2023-02-27T12:18:58.130Z,3.57
2023-02-27T12:21:33.273Z,3.62
2023-02-27T12:24:09.758Z,3.77
2023-02-27T12:26:40.849Z,3.88
2023-02-27T12:29:30.446Z,3.90
2023-02-27T12:32:02.887Z,3.89
2023-02-27T12:34:46.505Z,3.95
2023-02-27T12:37:17.271Z,3.92
2023-02-27T12:39:45.653Z,3.92
2023-02-27T12:42:27.983Z,3.86
2023-02-27T12:45:16.598Z,3.85
2023-02-27T12:48:08.617Z,3.78
2023-02-27T12:51:00.345Z,3.78
2023-02-27T12:53:36.527Z,3.90
2023-02-27T12:56:11.032Z,4.11
2023-02-27T12:59:03.730Z,4.60
2023-02-27T13:01:50.860Z,4.56
2023-02-27T13:04:35.063Z,4.44
2023-02-27T13:07:13.123Z,3.71
2023-02-27T13:09:56.589Z,3.35
2023-02-27T13:12:41.584Z,3.28
2023-02-27T13:15:30.174Z,2.88
2023-02-27T13:18:04.611Z,2.64
2023-02-27T13:20:50.483Z,2.35
2023-02-27T13:23:29.390Z,2.55
2023-02-27T13:25:57.756Z,2.79
2023-02-27T13:28:27.879Z,2.91
2023-02-27T13:31:09.358Z,2.97
2023-02-27T13:33:51.682Z,2.99
2023-02-27T13:36:26.514Z,2.95
2023-02-27T13:38:55.962Z,2.74
2023-02-27T13:41:23.082Z,2.72
2023-02-27T13:43:53.140Z,2.79
2023-02-27T13:46:30.580Z,2.86
2023-02-27T13:49:00.623Z,3.07
2023-02-27T13:51:39.964Z,3.37
2023-02-27T13:54:07.173Z,3.14
2023-02-27T13:56:34.620Z,3.14
2023-02-27T13:59:13.217Z,3.17
2023-02-27T14:01:47.887Z,3.19
2023-02-27T14:04:18.696Z,3.37
2023-02-27T14:06:47.450Z,3.38
2023-02-27T14:09:20.276Z,3.31
2023-02-27T14:11:59.726Z,3.37
2023-02-27T14:14:45.057Z,3.47
2023-02-27T14:17:39.029Z,3.72
2023-02-27T14:20:15.390Z,3.95
2023-02-27T14:23:08.173Z,4.05
2023-02-27T14:25:40.390Z,4.20
2023-02-27T14:28:18.477Z,3.81
2023-02-27T14:30:53.169Z,3.79
2023-02-27T14:33:41.051Z,3.78
2023-02-27T14:36:20.002Z,3.71
2023-02-27T14:38:48.374Z,3.69
2023-02-27T14:41:44.926Z,3.68
2023-02-27T14:44:18.268Z,3.72
2023-02-27T14:46:45.522Z,3.83
2023-02-27T14:49:21.682Z,3.86
2023-02-27T14:51:50.618Z,3.69
2023-02-27T14:54:21.090Z,3.85
2023-02-27T14:56:59.918Z,3.51
2023-02-27T14:59:48.887Z,3.33
2023-02-27T15:02:32.897Z,3.48
2023-02-27T15:05:03.367Z,3.65
2023-02-27T15:07:33.211Z,3.74
2023-02-27T15:10:04.493Z,3.71
2023-02-27T15:12:37.090Z,3.62
2023-02-27T15:15:06.165Z,3.67
2023-02-27T15:17:39.745Z,3.61
2023-02-27T15:20:25.942Z,3.58
2023-02-27T15:22:53.868Z,3.51
2023-02-27T15:25:39.642Z,3.12
2023-02-27T15:28:17.661Z,3.03
2023-02-27T15:30:52.052Z,3.00
2023-02-27T15:33:26.648Z,2.96
2023-02-27T15:35:54.044Z,2.85
2023-02-27T15:38:29.622Z,2.78
2023-02-27T15:40:58.537Z,2.75
2023-02-27T15:43:27.941Z,2.68
2023-02-27T15:45:56.320Z,2.62
2023-02-27T15:48:23.832Z,2.56
2023-02-27T15:50:57.389Z,2.45
2023-02-27T15:53:30.748Z,2.37
2023-02-27T15:56:01.602Z,2.26
2023-02-27T15:58:31.931Z,2.10
2023-02-27T16:01:07.875Z,2.02
2023-02-27T16:03:46.330Z,1.96
2023-02-27T16:06:24.545Z,1.66
2023-02-27T16:09:00.569Z,1.59
2023-02-27T16:11:30.276Z,1.52
2023-02-27T16:13:58.029Z,1.49
2023-02-27T16:16:35.392Z,1.54
2023-02-27T16:19:22.711Z,1.54
2023-02-27T16:22:12.979Z,1.54
2023-02-27T16:24:40.804Z,1.51
2023-02-27T16:27:22.155Z,1.47
2023-02-27T16:29:50.110Z,1.44
2023-02-27T16:32:42.279Z,1.41
2023-02-27T16:35:22.323Z,1.35
2023-02-27T16:37:50.499Z,1.34
2023-02-27T16:40:25.990Z,1.31
2023-02-27T16:42:53.958Z,1.28
2023-02-27T16:45:27.041Z,1.26
2023-02-27T16:47:57.204Z,1.26
2023-02-27T16:50:31.667Z,1.20
2023-02-27T16:52:59.348Z,1.17
2023-02-27T16:55:27.249Z,1.14
2023-02-27T16:57:54.499Z,1.13
2023-02-27T17:00:24.890Z,1.07
2023-02-27T17:02:52.218Z,1.00
2023-02-27T17:05:19.560Z,0.94
2023-02-27T17:07:47.129Z,0.94
2023-02-27T17:10:16.803Z,0.91
2023-02-27T17:12:44.215Z,0.87
2023-02-27T17:15:11.546Z,0.80
2023-02-27T17:17:38.718Z,0.76
2023-02-27T17:20:07.362Z,0.70
2023-02-27T17:22:39.879Z,0.66
2023-02-27T17:25:08.408Z,0.65
2023-02-27T17:27:36.368Z,0.62
2023-02-27T17:30:04.532Z,0.59
2023-02-27T17:32:31.827Z,0.61
2023-02-27T17:34:59.301Z,0.61
2023-02-27T17:37:27.180Z,0.65
2023-02-27T17:39:54.861Z,0.66
2023-02-27T17:42:25.560Z,0.70
2023-02-27T17:44:53.059Z,0.75
2023-02-27T17:47:20.383Z,0.77
2023-02-27T17:49:47.654Z,0.80
2023-02-27T17:52:15.092Z,0.82
2023-02-27T17:54:42.286Z,0.82
2023-02-27T17:57:11.461Z,0.83
2023-02-27T17:59:38.852Z,0.80
2023-02-27T18:02:07.675Z,0.79
2023-02-27T18:04:35.112Z,0.82
2023-02-27T18:07:02.374Z,0.82
2023-02-27T18:09:29.612Z,0.83
2023-02-27T18:11:57.880Z,0.79
2023-02-27T18:14:25.216Z,0.83
2023-02-27T18:16:52.531Z,0.89
2023-02-27T18:19:19.838Z,0.89
2023-02-27T18:21:47.249Z,0.91
2023-02-27T18:24:17.638Z,0.94
2023-02-27T18:26:45.340Z,0.97
2023-02-27T18:29:13.990Z,1.03
2023-02-27T18:31:44.552Z,1.01
2023-02-27T18:34:12.806Z,0.94
2023-02-27T18:36:40.163Z,0.93
2023-02-27T18:39:08.107Z,0.89
2023-02-27T18:41:35.643Z,0.89
2023-02-27T18:44:03.833Z,0.89
2023-02-27T18:46:32.572Z,0.87
2023-02-27T18:48:59.956Z,0.84
2023-02-27T18:51:27.657Z,0.87
2023-02-27T18:53:54.918Z,0.84
2023-02-27T18:56:24.887Z,0.82
2023-02-27T18:58:52.833Z,0.84
2023-02-27T19:01:26.713Z,0.87
2023-02-27T19:04:00.132Z,0.93
2023-02-27T19:06:27.943Z,0.96
2023-02-27T19:08:55.856Z,1.01
2023-02-27T19:11:26.004Z,1.04
2023-02-27T19:13:53.230Z,1.08
2023-02-27T19:16:20.493Z,1.13
2023-02-27T19:18:47.797Z,1.13
2023-02-27T19:21:14.986Z,1.21
2023-02-27T19:23:42.203Z,1.21
2023-02-27T19:26:09.401Z,1.18
2023-02-27T19:28:36.618Z,1.18
2023-02-27T19:31:12.732Z,1.16
2023-02-27T19:33:40.633Z,1.13
2023-02-27T19:36:14.494Z,1.11
2023-02-27T19:38:41.986Z,1.08
2023-02-27T19:41:11.448Z,1.10
2023-02-27T19:43:40.785Z,1.08
2023-02-27T19:46:10.658Z,1.08
2023-02-27T19:48:38.499Z,1.08
2023-02-27T19:51:07.775Z,1.08
2023-02-27T19:53:36.644Z,1.13
2023-02-27T19:56:07.538Z,1.11
2023-02-27T19:58:36.160Z,1.10
2023-02-27T20:01:04.554Z,1.11
2023-02-27T20:03:33.218Z,1.17
2023-02-27T20:06:00.582Z,1.17
2023-02-27T20:08:28.014Z,1.14
2023-02-27T20:10:56.883Z,1.16
2023-02-27T20:13:25.052Z,1.18
2023-02-27T20:16:04.208Z,1.16
2023-02-27T20:18:32.237Z,1.13
2023-02-27T20:21:04.412Z,1.14
2023-02-27T20:23:32.930Z,1.13
2023-02-27T20:26:00.461Z,1.11
2023-02-27T20:28:31.868Z,1.11
2023-02-27T20:30:59.150Z,1.11
2023-02-27T20:33:26.347Z,1.11
2023-02-27T20:35:53.659Z,1.11
2023-02-27T20:38:22.714Z,1.11
2023-02-27T20:40:49.975Z,1.14
2023-02-27T20:43:17.152Z,1.10
2023-02-27T20:45:44.349Z,1.13
2023-02-27T20:48:11.675Z,1.10
2023-02-27T20:50:38.856Z,1.10
2023-02-27T20:53:05.965Z,1.08
2023-02-27T20:55:33.214Z,1.07
2023-02-27T20:58:00.379Z,1.03
2023-02-27T21:00:27.855Z,0.97
2023-02-27T21:02:55.128Z,1.00
2023-02-27T21:05:22.519Z,1.00
2023-02-27T21:07:49.752Z,1.00
2023-02-27T21:10:17.815Z,0.94
2023-02-27T21:12:45.116Z,0.93
2023-02-27T21:15:12.679Z,0.96
2023-02-27T21:17:39.984Z,0.97
2023-02-27T21:20:08.028Z,0.99
2023-02-27T21:22:35.539Z,1.00
2023-02-27T21:25:02.761Z,1.01
2023-02-27T21:27:29.930Z,1.05
2023-02-27T21:29:57.121Z,1.03
2023-02-27T21:32:24.287Z,1.04
2023-02-27T21:34:51.493Z,1.04
2023-02-27T21:37:18.963Z,1.05
2023-02-27T21:39:50.569Z,1.05
2023-02-27T21:42:18.560Z,1.10
2023-02-27T21:44:45.884Z,1.10
2023-02-27T21:47:13.143Z,1.08
2023-02-27T21:49:40.316Z,1.05
2023-02-27T21:52:07.459Z,1.08
2023-02-27T21:54:34.752Z,1.08
2023-02-27T21:57:03.200Z,1.11
2023-02-27T21:59:30.780Z,1.11
2023-02-27T22:01:58.585Z,1.13
2023-02-27T22:04:25.831Z,1.13
2023-02-27T22:06:53.000Z,1.13
2023-02-27T22:09:20.685Z,1.17
2023-02-27T22:11:48.779Z,1.21
2023-02-27T22:14:16.203Z,1.21
2023-02-27T22:16:43.503Z,1.21
2023-02-27T22:19:19.664Z,1.21
2023-02-27T22:21:46.969Z,1.21
2023-02-27T22:24:14.676Z,1.26
2023-02-27T22:26:42.582Z,1.14
2023-02-27T22:29:10.125Z,1.17
2023-02-27T22:31:38.297Z,1.23
2023-02-27T22:34:17.906Z,1.23
2023-02-27T22:36:47.072Z,1.26
2023-02-27T22:39:14.472Z,1.24
2023-02-27T22:41:42.467Z,1.26
2023-02-27T22:44:13.175Z,1.24
2023-02-27T22:46:43.621Z,1.21
2023-02-27T22:49:14.388Z,1.24
2023-02-27T22:51:42.006Z,1.23
2023-02-27T22:54:11.654Z,1.27
2023-02-27T22:56:38.928Z,1.32
2023-02-27T22:59:06.677Z,1.26
2023-02-27T23:01:36.235Z,1.20
2023-02-27T23:04:07.919Z,1.21
2023-02-27T23:06:38.867Z,1.18
2023-02-27T23:09:08.699Z,1.18
2023-02-27T23:11:36.185Z,1.27
2023-02-27T23:14:03.780Z,1.30
2023-02-27T23:16:31.282Z,1.28
2023-02-27T23:18:59.841Z,1.28
2023-02-27T23:21:34.380Z,1.28
2023-02-27T23:24:13.030Z,1.27
2023-02-27T23:26:43.477Z,1.28
2023-02-27T23:29:11.708Z,1.26
2023-02-27T23:31:39.080Z,1.21
2023-02-27T23:34:06.939Z,1.23
2023-02-27T23:36:35.564Z,1.21
2023-02-27T23:39:05.073Z,1.23
2023-02-27T23:41:32.827Z,1.21
2023-02-27T23:44:01.477Z,1.23
2023-02-27T23:46:31.558Z,1.21
2023-02-27T23:48:59.632Z,1.20
2023-02-27T23:51:30.317Z,1.26
2023-02-27T23:53:58.475Z,1.26
2023-02-27T23:56:28.713Z,1.26
2023-02-27T23:59:04.920Z,1.24
